Time;durP1;ratioP1;P1;durP2;ratioP2;P2;SDS_P1;SDS_P2;PMS_P1;PMS_P2;Temp;Humidity;BMP_temperature;BMP_pressure;BME280_temperature;BME280_humidity;BME280_pressure;Samples;Min_cycle;Max_cycle;Signal;HPM_P1;HPM_P2
2022/01/01 00:00:05;;;;;;;63.20;24.13;;;;;;;-145.18;100.00;47385.16;5087585;28;20045;-79
2022/01/01 00:02:31;;;;;;;64.47;25.70;;;;;;;-145.18;100.00;47394.91;5087364;28;20051;-78
2022/01/01 00:04:57;;;;;;;60.00;25.07;;;;;;;-145.18;100.00;47408.59;5088509;28;20064;-79
2022/01/01 00:07:23;;;;;;;70.67;27.53;;;;;;;-145.18;100.00;47414.47;5087321;28;20055;-79
2022/01/01 00:09:48;;;;;;;66.90;26.33;;;;;;;-145.18;100.00;47406.63;5087718;28;20408;-78
2022/01/01 00:12:14;;;;;;;70.83;30.63;;;;;;;-145.18;100.00;47396.88;5087122;28;20036;-79
2022/01/01 00:14:39;;;;;;;73.17;31.33;;;;;;;-145.18;100.00;47414.47;5087075;28;20465;-79
2022/01/01 00:17:06;;;;;;;65.13;26.27;;;;;;;-145.18;100.00;47406.63;5087283;28;20036;-78
2022/01/01 00:19:32;;;;;;;75.73;31.27;;;;;;;-145.18;100.00;47385.16;5087284;28;20116;-78
2022/01/01 00:21:59;;;;;;;77.07;32.77;;;;;;;-145.18;100.00;47412.50;5087618;28;20123;-78
2022/01/01 00:24:24;;;;;;;72.57;29.57;;;;;;;-145.18;100.00;47402.72;5086901;28;20082;-78
2022/01/01 00:26:50;;;;;;;70.60;27.20;;;;;;;-145.18;100.00;47400.78;5086730;28;20063;-79
2022/01/01 00:29:15;;;;;;;63.93;24.60;;;;;;;-145.18;100.00;47396.88;5087293;28;20044;-79
2022/01/01 00:31:41;;;;;;;67.87;24.40;;;;;;;-145.18;100.00;47398.81;5087177;28;20036;-79
2022/01/01 00:34:06;;;;;;;67.70;25.90;;;;;;;-145.18;100.00;47387.09;5087145;28;20071;-78
2022/01/01 00:36:32;;;;;;;60.93;25.03;;;;;;;-145.18;100.00;47383.19;5069582;28;20115;-79
2022/01/01 00:38:57;;;;;;;64.17;25.07;;;;;;;-145.18;100.00;47385.16;5087165;28;20028;-79
2022/01/01 00:41:23;;;;;;;71.00;24.80;;;;;;;-145.18;100.00;47392.97;5087604;28;20077;-79
2022/01/01 00:43:48;;;;;;;63.97;24.43;;;;;;;-145.18;100.00;47373.44;5090950;28;20028;-79
2022/01/01 00:46:14;;;;;;;70.10;23.50;;;;;;;-145.18;100.00;47402.72;5091278;28;20035;-79
2022/01/01 00:48:39;;;;;;;59.23;23.60;;;;;;;-145.18;100.00;47391.00;5090887;28;20112;-78
2022/01/01 00:51:04;;;;;;;66.97;26.47;;;;;;;-145.18;100.00;47398.81;5091988;28;20081;-79
2022/01/01 00:53:30;;;;;;;67.93;28.30;;;;;;;-145.18;100.00;47389.06;5090688;28;20046;-79
2022/01/01 00:55:55;;;;;;;71.17;31.30;;;;;;;-145.18;100.00;47394.91;5091083;28;20036;-79
2022/01/01 00:58:21;;;;;;;60.87;30.27;;;;;;;-145.18;100.00;47398.81;5090586;28;20036;-79
2022/01/01 01:00:46;;;;;;;79.53;31.90;;;;;;;-145.18;100.00;47394.91;5091002;28;20047;-79
2022/01/01 01:03:14;;;;;;;73.03;31.73;;;;;;;-145.18;100.00;47394.91;5090861;28;20082;-78
2022/01/01 01:05:40;;;;;;;73.87;31.73;;;;;;;-145.18;100.00;47394.91;5091397;28;20035;-79
2022/01/01 01:08:09;;;;;;;75.57;29.13;;;;;;;-145.18;100.00;47394.91;5090004;28;20055;-78
2022/01/01 01:10:36;;;;;;;84.17;33.87;;;;;;;-145.18;100.00;47402.72;5090740;28;20093;-79
2022/01/01 01:13:02;;;;;;;66.00;28.93;;;;;;;-145.18;100.00;47396.88;5072336;28;20039;-79
2022/01/01 01:15:30;;;;;;;74.03;30.50;;;;;;;-145.18;100.00;47396.88;5090576;28;20040;-79
2022/01/01 01:17:57;;;;;;;76.83;30.43;;;;;;;-145.18;100.00;47392.97;5090403;28;20047;-79
2022/01/01 01:20:22;;;;;;;79.07;31.27;;;;;;;-145.18;100.00;47396.88;5090749;28;20496;-79
2022/01/01 01:22:48;;;;;;;78.13;31.87;;;;;;;-145.18;100.00;47396.88;5090379;28;20090;-78
2022/01/01 01:25:14;;;;;;;77.13;32.40;;;;;;;-145.18;100.00;47385.16;5091580;28;20048;-78
2022/01/01 01:27:40;;;;;;;82.40;35.70;;;;;;;-145.18;100.00;47412.50;5090370;28;20047;-78
2022/01/01 01:30:09;;;;;;;82.23;34.27;;;;;;;-145.18;100.00;47391.00;5090166;28;20047;-78
2022/01/01 01:32:35;;;;;;;80.97;35.03;;;;;;;-145.18;100.00;47410.56;5090399;28;20114;-79
2022/01/01 01:35:02;;;;;;;87.07;35.53;;;;;;;-145.18;100.00;47422.28;5090424;28;20043;-79
2022/01/01 01:37:28;;;;;;;82.27;32.30;;;;;;;-145.18;100.00;47416.41;5089779;28;20468;-79
2022/01/01 01:39:55;;;;;;;81.80;33.13;;;;;;;-145.18;100.00;47420.31;5090329;28;20036;-79
2022/01/01 01:42:20;;;;;;;80.47;32.90;;;;;;;-145.18;100.00;47396.88;5089867;28;20068;-77
2022/01/01 01:44:48;;;;;;;75.57;30.67;;;;;;;-145.18;100.00;47389.06;5090935;28;20580;-79
2022/01/01 01:47:16;;;;;;;66.43;28.40;;;;;;;-145.18;100.00;47394.91;5055315;28;20452;-79
2022/01/01 01:49:43;;;;;;;75.87;30.87;;;;;;;-145.18;100.00;47394.91;5090202;28;20786;-79
2022/01/01 01:52:09;;;;;;;73.93;27.87;;;;;;;-145.18;100.00;47418.38;5089106;28;20068;-78
2022/01/01 01:54:35;;;;;;;67.67;28.40;;;;;;;-145.18;100.00;47410.56;5089933;28;20071;-78
2022/01/01 01:57:01;;;;;;;72.33;28.17;;;;;;;-145.18;100.00;47406.63;5089851;28;20058;-79
2022/01/01 01:59:26;;;;;;;78.27;31.30;;;;;;;-145.18;100.00;47404.69;5089857;28;20447;-78
2022/01/01 02:01:52;;;;;;;66.90;30.47;;;;;;;-145.18;100.00;47400.78;5090632;28;20047;-79
2022/01/01 02:04:18;;;;;;;82.63;32.37;;;;;;;-145.18;100.00;47406.63;5089789;28;20054;-79
2022/01/01 02:06:44;;;;;;;83.00;31.80;;;;;;;-145.18;100.00;47400.78;5089561;28;20056;-79
2022/01/01 02:09:11;;;;;;;91.53;33.80;;;;;;;-145.18;100.00;47394.91;5089630;28;20044;-79
2022/01/01 02:11:39;;;;;;;84.33;34.73;;;;;;;-145.18;100.00;47385.16;5089562;28;20044;-78
2022/01/01 02:19:27;;;;;;;73.00;31.10;;;;;;;-145.18;100.00;47391.00;5089337;28;20050;-78
2022/01/01 02:22:00;;;;;;;71.63;33.13;;;;;;;-145.18;100.00;47404.69;5089448;28;20089;-79
2022/01/01 02:24:25;;;;;;;82.37;33.10;;;;;;;-145.18;100.00;47398.81;5089309;28;20039;-79
2022/01/01 02:26:51;;;;;;;80.23;32.53;;;;;;;-145.18;100.00;47404.69;5089580;28;20365;-78
2022/01/01 02:29:16;;;;;;;78.77;33.63;;;;;;;-145.18;100.00;47389.06;5089181;28;20055;-78
2022/01/01 02:31:42;;;;;;;76.93;31.10;;;;;;;-145.18;100.00;47406.63;5088701;28;20036;-78
2022/01/01 02:34:09;;;;;;;79.20;32.83;;;;;;;-145.18;100.00;47410.56;5071674;28;20040;-78
2022/01/01 02:36:39;;;;;;;71.93;31.70;;;;;;;-145.18;100.00;47404.69;5088821;28;20043;-79
2022/01/01 02:39:20;;;;;;;68.17;30.20;;;;;;;-145.18;100.00;47400.78;5088939;28;20092;-79
2022/01/01 02:41:50;;;;;;;70.00;29.43;;;;;;;-145.18;100.00;47408.59;5071138;28;20048;-78
2022/01/01 02:44:15;;;;;;;66.13;26.97;;;;;;;-145.18;100.00;47391.00;5088679;28;20111;-78
2022/01/01 02:46:41;;;;;;;72.23;26.40;;;;;;;-145.18;100.00;47414.47;5088892;28;20470;-79
2022/01/01 02:49:06;;;;;;;66.17;27.60;;;;;;;-145.18;100.00;47416.41;5088485;28;20040;-77
2022/01/01 02:51:32;;;;;;;66.33;26.27;;;;;;;-145.18;100.00;47408.59;5088678;28;20071;-78
2022/01/01 02:53:57;;;;;;;73.53;27.03;;;;;;;-145.18;100.00;47406.63;5088656;28;20044;-78
2022/01/01 02:56:23;;;;;;;60.37;26.83;;;;;;;-145.18;100.00;47398.81;5080539;28;20048;-78
2022/01/01 02:58:49;;;;;;;65.00;24.60;;;;;;;-145.18;100.00;47400.78;5068192;28;20044;-78
2022/01/01 03:01:15;;;;;;;66.53;24.07;;;;;;;-145.18;100.00;47428.13;5068887;28;20043;-78
2022/01/01 03:03:41;;;;;;;49.83;22.77;;;;;;;-145.18;100.00;47410.56;5067454;28;20045;-78
2022/01/01 03:06:07;;;;;;;64.73;24.00;;;;;;;-145.18;100.00;47400.78;5068363;28;20086;-78
2022/01/01 03:08:32;;;;;;;55.73;23.27;;;;;;;-145.18;100.00;47406.63;5067815;28;20041;-78
2022/01/01 03:10:57;;;;;;;54.03;24.13;;;;;;;-145.18;100.00;47396.88;5069333;28;20127;-78
2022/01/01 03:13:23;;;;;;;67.87;24.80;;;;;;;-145.18;100.00;47426.19;5067452;28;20109;-79
2022/01/01 03:15:48;;;;;;;54.37;22.77;;;;;;;-145.18;100.00;47402.72;5068355;28;20041;-79
2022/01/01 03:18:13;;;;;;;58.40;23.87;;;;;;;-145.18;100.00;47414.47;5068014;28;20488;-79
2022/01/01 03:20:39;;;;;;;63.23;24.60;;;;;;;-145.18;100.00;47402.72;5068299;28;20079;-79
2022/01/01 03:23:05;;;;;;;64.90;24.53;;;;;;;-145.18;100.00;47391.00;5067859;28;20449;-78
2022/01/01 03:25:30;;;;;;;53.23;23.27;;;;;;;-145.18;100.00;47422.28;5068339;28;20404;-79
2022/01/01 03:27:56;;;;;;;57.77;22.27;;;;;;;-145.18;100.00;47391.00;5067835;28;20405;-79
2022/01/01 03:30:22;;;;;;;53.53;20.90;;;;;;;-145.18;100.00;47389.06;5067974;28;20051;-79
2022/01/01 03:32:47;;;;;;;51.40;20.73;;;;;;;-145.18;100.00;47404.69;5067556;28;20038;-79
2022/01/01 03:35:13;;;;;;;61.83;21.73;;;;;;;-145.18;100.00;47398.81;5050299;28;20040;-79
2022/01/01 03:37:38;;;;;;;55.87;21.33;;;;;;;-145.18;100.00;47408.59;5067335;28;20048;-79
2022/01/01 03:40:04;;;;;;;51.97;18.23;;;;;;;-145.18;100.00;47404.69;5068281;28;20086;-79
2022/01/01 03:42:30;;;;;;;50.10;18.20;;;;;;;-145.18;100.00;47387.09;5066731;28;20051;-80
2022/01/01 03:44:56;;;;;;;55.30;18.23;;;;;;;-145.18;100.00;47391.00;5067809;28;20405;-79
2022/01/01 03:47:21;;;;;;;45.77;17.47;;;;;;;-145.18;100.00;47410.56;5067932;28;20060;-79
2022/01/01 03:49:47;;;;;;;36.67;17.50;;;;;;;-145.18;100.00;47392.97;5050222;28;20041;-79
2022/01/01 03:52:12;;;;;;;41.50;17.33;;;;;;;-145.18;100.00;47398.81;5067376;28;20138;-79
2022/01/01 03:54:38;;;;;;;51.10;16.80;;;;;;;-145.18;100.00;47412.50;5067879;28;20382;-79
2022/01/01 03:57:04;;;;;;;42.73;17.47;;;;;;;-145.18;100.00;47410.56;5067713;28;20041;-78
2022/01/01 03:59:29;;;;;;;42.23;15.93;;;;;;;-145.18;100.00;47406.63;5049228;28;20041;-78
2022/01/01 04:01:55;;;;;;;35.07;16.57;;;;;;;-145.18;100.00;47410.56;5067437;28;20370;-78
2022/01/01 04:04:24;;;;;;;37.40;16.00;;;;;;;-145.18;100.00;47418.38;5067563;28;20033;-78
2022/01/01 04:06:50;;;;;;;44.10;17.57;;;;;;;-145.18;100.00;47414.47;5067288;28;20047;-78
2022/01/01 04:09:15;;;;;;;36.10;15.93;;;;;;;-145.18;100.00;47410.56;5067511;28;20113;-78
2022/01/01 04:11:42;;;;;;;36.17;15.97;;;;;;;-145.18;100.00;47410.56;5067449;28;20047;-78
2022/01/01 04:14:13;;;;;;;32.67;16.27;;;;;;;-145.18;100.00;47404.69;5067262;28;20610;-78
2022/01/01 04:16:39;;;;;;;41.13;17.50;;;;;;;-145.18;100.00;47391.00;5066932;28;20113;-78
2022/01/01 04:19:04;;;;;;;39.07;16.60;;;;;;;-145.18;100.00;47414.47;5067031;28;20522;-78
2022/01/01 04:21:30;;;;;;;40.00;17.63;;;;;;;-145.18;100.00;47426.19;5067289;28;20433;-79
2022/01/01 04:23:55;;;;;;;40.87;17.07;;;;;;;-145.18;100.00;47426.19;5066951;28;20047;-78
2022/01/01 04:26:21;;;;;;;39.10;16.00;;;;;;;-145.18;100.00;47406.63;5067222;28;20049;-78
2022/01/01 04:28:46;;;;;;;50.27;16.53;;;;;;;-145.18;100.00;47406.63;5067166;28;20043;-78
2022/01/01 04:31:14;;;;;;;30.03;14.90;;;;;;;-145.18;100.00;47410.56;5067523;28;20452;-78
2022/01/01 04:33:39;;;;;;;33.17;16.60;;;;;;;-145.18;100.00;47422.28;5066422;28;20036;-78
2022/01/01 04:36:05;;;;;;;31.27;15.30;;;;;;;-145.18;100.00;47420.31;5067305;28;20064;-78
2022/01/01 04:40:56;;;;;;;36.37;14.87;;;;;;;-145.18;100.00;47402.72;5067386;28;20032;-78
2022/01/01 04:43:21;;;;;;;34.00;14.87;;;;;;;-145.18;100.00;47430.09;5066660;28;20561;-78
2022/01/01 04:45:46;;;;;;;34.63;15.73;;;;;;;-145.18;100.00;47410.56;5067670;28;20041;-78
2022/01/01 04:48:12;;;;;;;39.73;15.23;;;;;;;-145.18;100.00;47424.22;5067015;28;20071;-79
2022/01/01 04:50:37;;;;;;;43.57;17.93;;;;;;;-145.18;100.00;47406.63;5067076;28;20515;-79
2022/01/01 04:53:02;;;;;;;38.40;14.77;;;;;;;-145.18;100.00;47410.56;5066766;28;20044;-79
2022/01/01 04:55:29;;;;;;;30.97;14.00;;;;;;;-145.18;100.00;47389.06;5067172;28;20048;-79
2022/01/01 04:57:54;;;;;;;37.97;14.63;;;;;;;-145.18;100.00;47416.41;5066736;28;20100;-79
2022/01/01 05:00:19;;;;;;;29.30;13.10;;;;;;;-145.18;100.00;47391.00;5050082;28;20044;-79
2022/01/01 05:02:45;;;;;;;31.87;13.20;;;;;;;-145.18;100.00;47387.09;5066413;28;20488;-78
2022/01/01 05:05:10;;;;;;;38.30;13.07;;;;;;;-145.18;100.00;47398.81;5067099;28;20072;-79
2022/01/01 05:07:35;;;;;;;35.70;12.47;;;;;;;-145.18;100.00;47381.25;5066427;28;20070;-78
2022/01/01 05:10:01;;;;;;;26.33;12.23;;;;;;;-145.18;100.00;47381.25;5067071;28;20055;-78
2022/01/01 05:12:26;;;;;;;27.97;13.23;;;;;;;-145.18;100.00;47377.34;5067119;28;20040;-78
2022/01/01 05:14:52;;;;;;;30.23;13.00;;;;;;;-145.18;100.00;47379.28;5066316;28;20039;-78
2022/01/01 05:17:18;;;;;;;22.90;11.17;;;;;;;-145.18;100.00;47379.28;5067165;28;20050;-78
2022/01/01 05:19:43;;;;;;;26.67;11.33;;;;;;;-145.18;100.00;47375.38;5066135;28;20058;-79
2022/01/01 05:22:09;;;;;;;25.47;11.93;;;;;;;-145.18;100.00;47367.56;5066729;28;20036;-77
2022/01/01 05:24:34;;;;;;;27.50;10.57;;;;;;;-145.18;100.00;47381.25;5066440;28;20497;-77
2022/01/01 05:27:00;;;;;;;22.80;9.50;;;;;;;-145.18;100.00;47373.44;5067315;28;20047;-78
2022/01/01 05:29:25;;;;;;;28.73;10.70;;;;;;;-145.18;100.00;47375.38;5070261;28;20045;-78
2022/01/01 05:31:51;;;;;;;20.20;10.33;;;;;;;-145.18;100.00;47387.09;5070483;28;20048;-78
2022/01/01 05:34:16;;;;;;;25.00;9.30;;;;;;;-145.18;100.00;47371.47;5069819;28;20136;-78
2022/01/01 05:36:41;;;;;;;28.17;9.97;;;;;;;-145.18;100.00;47383.19;5070187;28;20709;-78
2022/01/01 05:39:08;;;;;;;26.13;9.67;;;;;;;-145.18;100.00;47355.84;5069905;28;20056;-77
2022/01/01 05:41:34;;;;;;;24.67;9.67;;;;;;;-145.18;100.00;47375.38;5070731;28;20127;-78
2022/01/01 05:43:59;;;;;;;25.67;9.17;;;;;;;-145.18;100.00;47377.34;5070012;28;20171;-77
2022/01/01 05:46:25;;;;;;;25.33;9.37;;;;;;;-145.18;100.00;47363.66;5051988;28;20048;-78
2022/01/01 05:48:51;;;;;;;21.40;8.40;;;;;;;-145.18;100.00;47377.34;5069873;28;20045;-78
2022/01/01 05:51:16;;;;;;;27.03;9.70;;;;;;;-145.18;100.00;47371.47;5052269;28;20043;-78
2022/01/01 05:53:42;;;;;;;26.07;9.67;;;;;;;-145.18;100.00;47371.47;5051640;28;20051;-78
2022/01/01 05:56:07;;;;;;;21.60;9.23;;;;;;;-145.18;100.00;47383.19;5070361;28;20033;-77
2022/01/01 05:58:32;;;;;;;19.97;8.70;;;;;;;-145.18;100.00;47387.09;5052496;28;20119;-78
2022/01/01 06:00:58;;;;;;;26.57;9.10;;;;;;;-145.18;100.00;47383.19;5070134;28;20049;-79
2022/01/01 06:03:23;;;;;;;22.80;9.83;;;;;;;-145.18;100.00;47394.91;5069624;28;20048;-79
2022/01/01 06:05:51;;;;;;;26.47;9.47;;;;;;;-145.18;100.00;47387.09;5040171;28;20041;-78
2022/01/01 06:08:18;;;;;;;22.13;9.37;;;;;;;-145.18;100.00;47375.38;5049269;28;20114;-78
2022/01/01 06:10:43;;;;;;;22.03;9.50;;;;;;;-145.18;100.00;47369.53;5049168;28;20071;-78
2022/01/01 06:13:09;;;;;;;20.77;9.30;;;;;;;-145.18;100.00;47377.34;5049878;28;20486;-79
2022/01/01 06:15:34;;;;;;;23.10;9.13;;;;;;;-145.18;100.00;47375.38;5049237;28;20033;-79
2022/01/01 06:17:59;;;;;;;23.57;8.57;;;;;;;-145.18;100.00;47369.53;5053451;28;20132;-78
2022/01/01 06:20:25;;;;;;;22.70;8.07;;;;;;;-145.18;100.00;47375.38;5068501;28;20040;-78
2022/01/01 06:22:51;;;;;;;22.07;7.80;;;;;;;-145.18;100.00;47379.28;5067821;28;20048;-78
2022/01/01 06:25:16;;;;;;;24.53;8.50;;;;;;;-145.18;100.00;47379.28;5068576;28;20039;-78
2022/01/01 06:27:42;;;;;;;22.57;8.57;;;;;;;-145.18;100.00;47402.72;5068938;28;20040;-78
2022/01/01 06:30:08;;;;;;;23.50;8.53;;;;;;;-145.18;100.00;47389.06;5068175;28;20044;-78
2022/01/01 06:32:33;;;;;;;22.27;7.53;;;;;;;-145.18;100.00;47383.19;5068192;28;20052;-78
2022/01/01 06:34:59;;;;;;;17.30;7.43;;;;;;;-145.18;100.00;47385.16;5068232;28;20040;-78
2022/01/01 06:37:25;;;;;;;16.83;7.43;;;;;;;-145.18;100.00;47379.28;5068869;28;20218;-78
2022/01/01 06:39:50;;;;;;;21.60;7.10;;;;;;;-145.18;100.00;47373.44;5068314;28;20067;-79
2022/01/01 06:42:15;;;;;;;22.53;7.17;;;;;;;-145.18;100.00;47379.28;5069505;28;20386;-79
2022/01/01 06:44:42;;;;;;;21.70;7.60;;;;;;;-145.18;100.00;47383.19;5068368;28;20037;-79
2022/01/01 06:47:08;;;;;;;23.53;6.43;;;;;;;-145.18;100.00;47357.78;5050585;28;20094;-78
2022/01/01 06:49:33;;;;;;;21.57;7.00;;;;;;;-145.18;100.00;47377.34;5068149;28;20116;-78
2022/01/01 06:51:59;;;;;;;20.97;6.77;;;;;;;-145.18;100.00;47367.56;5048927;28;20624;-78
2022/01/01 06:54:24;;;;;;;13.10;6.10;;;;;;;-145.18;100.00;47377.34;5064768;28;20046;-78
2022/01/01 06:56:50;;;;;;;17.50;7.37;;;;;;;-145.18;100.00;47359.75;5013067;28;20047;-78
2022/01/01 06:59:15;;;;;;;18.63;6.20;;;;;;;-145.18;100.00;47363.66;5048198;28;20064;-78
2022/01/01 07:01:40;;;;;;;17.13;6.77;;;;;;;-145.18;100.00;47371.47;5048593;28;20080;-78
2022/01/01 07:04:06;;;;;;;17.50;6.60;;;;;;;-145.18;100.00;47371.47;5048485;28;20064;-79
2022/01/01 07:06:33;;;;;;;21.03;7.43;;;;;;;-145.18;100.00;47365.63;5041077;28;20048;-78
2022/01/01 07:08:59;;;;;;;25.67;8.20;;;;;;;-145.18;100.00;47383.19;5063734;28;20060;-78
2022/01/01 07:11:24;;;;;;;22.27;6.57;;;;;;;-145.18;100.00;47381.25;5068314;28;20052;-78
2022/01/01 07:13:50;;;;;;;19.33;6.17;;;;;;;-145.18;100.00;47379.28;5049660;28;20143;-78
2022/01/01 07:16:15;;;;;;;16.97;5.77;;;;;;;-145.18;100.00;47377.34;5067516;28;20045;-78
2022/01/01 07:18:40;;;;;;;18.73;5.70;;;;;;;-145.18;100.00;47379.28;5032702;28;20048;-78
2022/01/01 07:21:06;;;;;;;19.70;7.00;;;;;;;-145.18;100.00;47383.19;5049998;28;20796;-79
2022/01/01 07:23:31;;;;;;;21.90;5.43;;;;;;;-145.18;100.00;47369.53;5067306;28;20056;-79
2022/01/01 07:25:57;;;;;;;15.70;5.60;;;;;;;-145.18;100.00;47371.47;5068462;28;20045;-79
2022/01/01 07:28:22;;;;;;;22.13;6.50;;;;;;;-145.18;100.00;47373.44;5066846;28;20048;-79
2022/01/01 07:30:48;;;;;;;20.33;6.00;;;;;;;-145.18;100.00;47369.53;5067589;28;20040;-79
2022/01/01 07:33:14;;;;;;;14.47;5.77;;;;;;;-145.18;100.00;47375.38;5067369;28;20116;-79
2022/01/01 07:35:40;;;;;;;20.03;5.77;;;;;;;-145.18;100.00;47377.34;5049860;28;20040;-79
2022/01/01 07:38:06;;;;;;;16.63;5.07;;;;;;;-145.18;100.00;47359.75;5067003;28;20508;-79
2022/01/01 07:40:34;;;;;;;17.70;5.97;;;;;;;-145.18;100.00;47387.09;5067555;28;20040;-78
2022/01/01 07:43:09;;;;;;;22.43;6.77;;;;;;;-145.18;100.00;47371.47;5067981;28;20029;-79
2022/01/01 07:45:34;;;;;;;18.13;6.43;;;;;;;-145.18;100.00;47387.09;5067535;28;20036;-79
2022/01/01 07:47:59;;;;;;;18.93;6.33;;;;;;;-145.18;100.00;47361.72;5065679;28;20033;-79
2022/01/01 07:50:25;;;;;;;18.37;6.33;;;;;;;-145.18;100.00;47375.38;5066956;28;20075;-79
2022/01/01 07:52:51;;;;;;;19.60;5.83;;;;;;;-145.18;100.00;47377.34;5066612;28;20039;-79
2022/01/01 07:55:17;;;;;;;17.20;7.27;;;;;;;-145.18;100.00;47351.94;5067312;28;20458;-79
2022/01/01 07:57:43;;;;;;;14.47;6.57;;;;;;;-145.18;100.00;47408.59;5067147;28;20065;-78
2022/01/01 08:00:09;;;;;;;17.93;6.37;;;;;;;-145.18;100.00;47391.00;5067935;28;20045;-79
2022/01/01 08:02:41;;;;;;;23.07;6.73;;;;;;;-145.18;100.00;47391.00;5049008;28;20076;-79
2022/01/01 08:05:07;;;;;;;19.67;6.73;;;;;;;-145.18;100.00;47377.34;5066553;28;20051;-78
2022/01/01 08:07:33;;;;;;;15.97;6.40;;;;;;;-145.18;100.00;47377.34;5065922;28;20032;-79
2022/01/01 08:09:58;;;;;;;14.43;7.10;;;;;;;-145.18;100.00;47377.34;5066850;28;20048;-79
2022/01/01 08:12:23;;;;;;;21.50;6.67;;;;;;;-145.18;100.00;47396.88;5067733;28;20401;-79
2022/01/01 08:14:49;;;;;;;12.27;6.33;;;;;;;-145.18;100.00;47381.25;5066446;28;20113;-78
2022/01/01 08:17:14;;;;;;;15.97;6.47;;;;;;;-145.18;100.00;47389.06;5068167;28;20045;-79
2022/01/01 08:19:40;;;;;;;17.43;6.77;;;;;;;-145.18;100.00;47387.09;5066526;28;20138;-79
2022/01/01 08:22:05;;;;;;;19.60;6.73;;;;;;;-145.18;100.00;47383.19;5067143;28;20043;-80
2022/01/01 08:24:31;;;;;;;21.13;6.57;;;;;;;-145.18;100.00;47389.06;5066171;28;20049;-78
2022/01/01 08:26:56;;;;;;;17.13;6.23;;;;;;;-145.18;100.00;47371.47;5067302;28;20055;-78
2022/01/01 08:29:22;;;;;;;19.53;7.13;;;;;;;-145.18;100.00;47385.16;5067038;28;20068;-78
2022/01/01 08:31:50;;;;;;;15.50;6.43;;;;;;;-145.18;100.00;47389.06;5067736;28;20032;-79
2022/01/01 08:34:16;;;;;;;17.93;7.77;;;;;;;-145.18;100.00;47391.00;5066870;28;20040;-78
2022/01/01 08:36:41;;;;;;;19.00;7.27;;;;;;;-145.18;100.00;47387.09;5066661;28;20052;-79
2022/01/01 08:39:08;;;;;;;19.73;7.60;;;;;;;-145.18;100.00;47400.78;5066809;28;20032;-78
2022/01/01 08:41:34;;;;;;;17.77;7.40;;;;;;;-145.18;100.00;47385.16;5066516;28;20033;-79
2022/01/01 08:44:00;;;;;;;21.07;7.40;;;;;;;-145.18;100.00;47391.00;5066531;28;20043;-79
2022/01/01 08:46:25;;;;;;;18.10;7.60;;;;;;;-145.18;100.00;47389.06;5067031;28;20051;-78
2022/01/01 08:48:51;;;;;;;22.50;8.30;;;;;;;-145.18;100.00;47383.19;5066868;28;20036;-78
2022/01/01 08:51:18;;;;;;;21.87;8.07;;;;;;;-145.18;100.00;47385.16;5066846;28;20044;-78
2022/01/01 08:53:45;;;;;;;21.30;7.60;;;;;;;-145.18;100.00;47389.06;5066119;28;20041;-79
2022/01/01 08:56:11;;;;;;;18.80;8.83;;;;;;;-145.18;100.00;47400.78;5066245;28;20033;-79
2022/01/01 08:58:36;;;;;;;22.00;9.10;;;;;;;-145.18;100.00;47389.06;5066265;28;20043;-79
2022/01/01 09:01:03;;;;;;;21.23;9.00;;;;;;;-145.18;100.00;47387.09;5066670;28;20033;-79
2022/01/01 09:03:29;;;;;;;26.33;9.40;;;;;;;-145.18;100.00;47357.78;5067346;28;20052;-78
2022/01/01 09:05:54;;;;;;;26.13;9.43;;;;;;;-145.18;100.00;47377.34;5071121;28;20033;-78
2022/01/01 09:08:20;;;;;;;18.20;8.93;;;;;;;-145.18;100.00;47367.56;5069945;28;20040;-78
2022/01/01 09:10:45;;;;;;;25.53;10.17;;;;;;;-145.18;100.00;47375.38;5068977;28;20175;-78
2022/01/01 09:13:10;;;;;;;27.17;11.03;;;;;;;-145.18;100.00;47389.06;5070647;28;20036;-78
2022/01/01 09:15:36;;;;;;;23.57;10.43;;;;;;;-145.18;100.00;47375.38;5051822;28;20132;-79
2022/01/01 09:18:02;;;;;;;20.20;10.00;;;;;;;-145.18;100.00;47385.16;5070763;28;20075;-78
2022/01/01 09:20:27;;;;;;;21.70;9.93;;;;;;;-145.18;100.00;47398.81;5071049;28;20043;-79
2022/01/01 09:22:52;;;;;;;28.33;11.43;;;;;;;-145.18;100.00;47392.97;5070078;28;20040;-79
2022/01/01 09:25:18;;;;;;;20.60;10.97;;;;;;;-145.18;100.00;47375.38;5052454;28;20036;-78
2022/01/01 09:27:43;;;;;;;26.80;11.33;;;;;;;-145.18;100.00;47389.06;5052273;28;20111;-78
2022/01/01 09:30:09;;;;;;;23.57;11.23;;;;;;;-145.18;100.00;47394.91;5069759;28;20394;-78
2022/01/01 09:32:35;;;;;;;25.47;11.10;;;;;;;-145.18;100.00;47394.91;5070849;28;20041;-78
2022/01/01 09:35:01;;;;;;;24.70;11.10;;;;;;;-145.18;100.00;47383.19;5069855;28;20067;-78
2022/01/01 09:37:27;;;;;;;25.70;11.10;;;;;;;-145.18;100.00;47385.16;5052357;28;20501;-79
2022/01/01 09:39:52;;;;;;;27.70;12.20;;;;;;;-145.18;100.00;47379.28;5069516;28;20043;-78
2022/01/01 09:42:21;;;;;;;23.27;11.23;;;;;;;-145.18;100.00;47365.63;5070095;28;20119;-78
2022/01/01 09:44:47;;;;;;;28.33;11.80;;;;;;;-145.18;100.00;47387.09;5069218;28;20053;-79
2022/01/01 09:47:12;;;;;;;23.47;12.23;;;;;;;-145.18;100.00;47383.19;5070023;28;20063;-79
2022/01/01 09:49:38;;;;;;;28.23;12.37;;;;;;;-145.18;100.00;47371.47;5052223;28;20064;-78
2022/01/01 09:52:04;;;;;;;24.23;11.97;;;;;;;-145.18;100.00;47375.38;5069861;28;20044;-79
2022/01/01 09:54:30;;;;;;;26.47;12.93;;;;;;;-145.18;100.00;47357.78;5069431;28;20040;-78
2022/01/01 09:56:56;;;;;;;25.87;12.50;;;;;;;-145.18;100.00;47346.06;5070055;28;20040;-79
2022/01/01 09:59:21;;;;;;;26.10;12.47;;;;;;;-145.18;100.00;47361.72;5069401;28;20041;-79
2022/01/01 10:01:47;;;;;;;27.63;12.50;;;;;;;-145.18;100.00;47353.88;5069378;28;20039;-78
2022/01/01 10:04:14;;;;;;;26.33;12.53;;;;;;;-145.18;100.00;47355.84;5051950;28;20120;-79
2022/01/01 10:06:40;;;;;;;26.90;13.20;;;;;;;-145.18;100.00;47355.84;5069532;28;20033;-79
2022/01/01 10:09:07;;;;;;;28.93;13.73;;;;;;;-145.18;100.00;47348.03;5069467;28;20044;-78
2022/01/01 10:11:33;;;;;;;22.20;13.03;;;;;;;-145.18;100.00;47349.97;5069323;28;20441;-78
2022/01/01 10:13:59;;;;;;;25.43;13.73;;;;;;;-145.18;100.00;47330.44;5068742;28;20450;-78
2022/01/01 10:16:25;;;;;;;22.90;12.73;;;;;;;-145.18;100.00;47334.34;5069520;28;20052;-78
2022/01/01 10:18:53;;;;;;;22.60;13.07;;;;;;;-145.18;100.00;47359.75;5069536;28;20405;-79
2022/01/01 10:21:23;;;;;;;23.17;11.87;;;;;;;-145.18;100.00;47344.13;5069621;28;20520;-78
2022/01/01 10:23:52;;;;;;;28.10;11.53;;;;;;;-145.18;100.00;47344.13;5068696;28;20055;-78
2022/01/01 10:29:28;;;;;;;23.87;11.20;;;;;;;-145.18;100.00;47340.22;5068935;28;20130;-79
2022/01/01 10:31:56;;;;;;;23.50;12.57;;;;;;;-145.18;100.00;47336.31;5069291;28;20040;-78
2022/01/01 10:34:25;;;;;;;20.83;11.93;;;;;;;-145.18;100.00;47340.22;5067858;28;20114;-78
2022/01/01 10:36:52;;;;;;;22.87;12.93;;;;;;;-145.18;100.00;47340.22;5069039;28;20182;-78
2022/01/01 10:39:19;;;;;;;23.00;12.60;;;;;;;-145.18;100.00;47348.03;5068511;28;20394;-78
2022/01/01 10:42:08;;;;;;;22.27;12.83;;;;;;;-145.18;100.00;47348.03;5068761;28;20048;-79
2022/01/01 10:44:39;;;;;;;24.17;11.03;;;;;;;-145.18;100.00;47349.97;5067432;28;20037;-78
2022/01/01 10:47:06;;;;;;;26.23;13.33;;;;;;;-145.18;100.00;47348.03;5069153;28;20094;-78
2022/01/01 10:50:02;;;;;;;22.90;12.63;;;;;;;-145.18;100.00;47305.06;5068431;28;20039;-78
2022/01/01 10:52:28;;;;;;;21.93;12.27;;;;;;;-145.18;100.00;47338.25;5068602;28;20044;-78
2022/01/01 10:54:59;;;;;;;23.10;12.30;;;;;;;-145.18;100.00;47357.78;5050406;28;20040;-78
2022/01/01 10:57:34;;;;;;;20.03;10.60;;;;;;;-145.18;100.00;47340.22;5068647;28;20054;-78
2022/01/01 11:00:20;;;;;;;18.60;11.70;;;;;;;-145.18;100.00;47324.59;5068551;28;20040;-78
2022/01/01 11:02:53;;;;;;;21.05;12.10;;;;;;;-145.18;100.00;47316.78;5068486;28;20520;-78